createdAt,value
2018-12-09T00:01:22.336Z,8.40
2018-12-09T00:03:56.843Z,8.40
2018-12-09T00:06:31.575Z,8.40
2018-12-09T00:09:06.468Z,8.30
2018-12-09T00:11:41.062Z,8.30
2018-12-09T00:14:15.896Z,8.30
2018-12-09T00:16:50.844Z,8.30
2018-12-09T00:19:25.382Z,8.30
2018-12-09T00:22:00.185Z,8.20
2018-12-09T00:24:35.002Z,8.20
2018-12-09T00:27:09.495Z,8.20
2018-12-09T00:29:44.344Z,8.10
2018-12-09T00:32:18.990Z,8.10
2018-12-09T00:34:53.715Z,8.10
2018-12-09T00:37:28.436Z,8.10
2018-12-09T00:40:03.935Z,8.00
2018-12-09T00:42:43.337Z,8.00
2018-12-09T00:45:15.698Z,8.00
2018-12-09T00:47:50.558Z,8.00
2018-12-09T00:50:25.303Z,7.90
2018-12-09T00:52:59.851Z,7.90
2018-12-09T00:55:34.477Z,8.00
2018-12-09T00:58:09.113Z,8.10
2018-12-09T01:00:43.841Z,8.20
2018-12-09T01:03:18.348Z,8.20
2018-12-09T01:05:53.061Z,8.20
2018-12-09T01:08:27.716Z,8.20
2018-12-09T01:11:02.369Z,8.20
2018-12-09T01:13:37.085Z,8.30
2018-12-09T01:16:11.694Z,8.30
2018-12-09T01:18:46.482Z,8.20
2018-12-09T01:21:21.105Z,8.30
2018-12-09T01:23:56.013Z,8.40
2018-12-09T01:26:30.784Z,8.40
2018-12-09T01:29:05.388Z,8.40
2018-12-09T01:31:40.300Z,8.50
2018-12-09T01:34:15.198Z,8.50
2018-12-09T01:36:49.782Z,8.50
2018-12-09T01:39:24.664Z,8.50
2018-12-09T01:41:59.388Z,8.60
2018-12-09T01:44:34.250Z,8.60
2018-12-09T01:47:08.949Z,8.60
2018-12-09T01:49:43.549Z,8.60
2018-12-09T01:52:18.299Z,8.60
2018-12-09T01:54:52.919Z,8.60
2018-12-09T01:57:27.601Z,8.60
2018-12-09T02:00:02.386Z,8.50
2018-12-09T02:02:37.000Z,8.50
2018-12-09T02:05:11.719Z,8.50
2018-12-09T02:07:46.403Z,8.40
2018-12-09T02:10:21.222Z,8.40
2018-12-09T02:12:55.880Z,8.30
2018-12-09T02:15:31.656Z,8.30
2018-12-09T02:18:06.292Z,8.20
2018-12-09T02:20:41.105Z,8.20
2018-12-09T02:23:15.854Z,8.10
2018-12-09T02:25:51.140Z,8.10
2018-12-09T02:28:26.343Z,8.10
2018-12-09T02:31:01.162Z,8.10
2018-12-09T02:33:35.779Z,8.10
2018-12-09T02:36:11.283Z,8.10
2018-12-09T02:38:46.098Z,8.10
2018-12-09T02:41:20.822Z,8.10
2018-12-09T02:43:55.834Z,8.10
2018-12-09T02:46:30.388Z,8.10
2018-12-09T02:49:05.226Z,8.20
2018-12-09T02:51:39.753Z,8.20
2018-12-09T02:54:14.379Z,8.20
2018-12-09T02:56:49.637Z,8.20
2018-12-09T02:59:23.995Z,8.30
2018-12-09T03:01:58.628Z,8.40
2018-12-09T03:04:33.418Z,8.40
2018-12-09T03:07:08.013Z,8.30
2018-12-09T03:09:42.596Z,8.40
2018-12-09T03:12:17.264Z,8.40
2018-12-09T03:14:51.769Z,8.40
2018-12-09T03:17:26.553Z,8.40
2018-12-09T03:20:01.185Z,8.30
2018-12-09T03:22:35.844Z,8.20
2018-12-09T03:25:10.567Z,8.20
2018-12-09T03:27:45.147Z,8.20
2018-12-09T03:30:19.833Z,8.20
2018-12-09T03:32:54.540Z,8.20
2018-12-09T03:35:29.247Z,8.20
2018-12-09T03:38:03.874Z,8.20
2018-12-09T03:40:38.622Z,8.20
2018-12-09T03:43:13.495Z,8.30
2018-12-09T03:45:49.049Z,8.30
2018-12-09T03:48:23.896Z,8.20
2018-12-09T03:50:58.661Z,8.20
2018-12-09T03:53:33.526Z,8.10
2018-12-09T03:56:08.411Z,8.00
2018-12-09T03:58:43.117Z,8.00
2018-12-09T04:01:17.765Z,7.90
2018-12-09T04:03:52.782Z,7.90
2018-12-09T04:06:28.246Z,7.80
2018-12-09T04:09:03.584Z,7.80
2018-12-09T04:11:38.706Z,7.80
2018-12-09T04:14:13.350Z,7.70
2018-12-09T04:16:48.156Z,7.70
2018-12-09T04:19:23.757Z,7.70
2018-12-09T04:21:58.294Z,7.70
2018-12-09T04:24:33.193Z,7.80
2018-12-09T04:27:07.997Z,7.80
2018-12-09T04:29:42.654Z,7.80
2018-12-09T04:32:17.441Z,7.80
2018-12-09T04:34:52.223Z,7.70
2018-12-09T04:37:26.873Z,7.60
2018-12-09T04:40:01.682Z,7.60
2018-12-09T04:42:36.387Z,7.50
2018-12-09T04:45:11.037Z,7.50
2018-12-09T04:47:45.867Z,7.40
2018-12-09T04:50:20.469Z,7.40
2018-12-09T04:52:55.312Z,7.40
2018-12-09T04:55:30.033Z,7.40
2018-12-09T04:58:04.777Z,7.40
2018-12-09T05:00:53.765Z,7.40
2018-12-09T05:03:29.241Z,7.50
2018-12-09T05:06:04.011Z,7.50
2018-12-09T05:08:38.591Z,7.50
2018-12-09T05:11:13.409Z,7.50
2018-12-09T05:13:48.121Z,7.50
2018-12-09T05:16:22.785Z,7.50
2018-12-09T05:18:57.644Z,7.40
2018-12-09T05:21:32.364Z,7.30
2018-12-09T05:24:07.084Z,7.30
2018-12-09T05:26:41.901Z,7.40
2018-12-09T05:29:16.545Z,7.40
2018-12-09T05:31:51.048Z,7.40
2018-12-09T05:34:25.684Z,7.40
2018-12-09T05:37:00.287Z,7.40
2018-12-09T05:39:34.950Z,7.40
2018-12-09T05:42:10.566Z,7.40
2018-12-09T05:44:45.356Z,7.50
2018-12-09T05:47:20.067Z,7.50
2018-12-09T05:49:54.972Z,7.60
2018-12-09T05:52:29.620Z,7.50
2018-12-09T05:55:05.710Z,7.50
2018-12-09T05:57:40.027Z,7.50
2018-12-09T06:00:14.711Z,7.40
2018-12-09T06:02:54.558Z,7.40
2018-12-09T06:05:29.061Z,7.40
2018-12-09T06:08:04.056Z,7.40
2018-12-09T06:10:38.661Z,7.40
2018-12-09T06:13:13.496Z,7.40
2018-12-09T06:15:49.267Z,7.30
2018-12-09T06:18:23.916Z,7.30
2018-12-09T06:20:58.652Z,7.30
2018-12-09T06:23:33.443Z,7.30
2018-12-09T06:26:08.139Z,7.30
2018-12-09T06:28:42.755Z,7.50
2018-12-09T06:31:17.625Z,7.30
2018-12-09T06:33:52.450Z,7.30
2018-12-09T06:36:27.285Z,7.30
2018-12-09T06:39:02.079Z,7.30
2018-12-09T06:41:36.765Z,7.40
2018-12-09T06:44:11.587Z,7.40
2018-12-09T06:46:46.209Z,7.40
2018-12-09T06:49:20.921Z,7.40
2018-12-09T06:51:55.584Z,7.30
2018-12-09T06:54:30.476Z,7.40
2018-12-09T06:57:05.131Z,7.40
2018-12-09T06:59:39.898Z,7.40
2018-12-09T07:02:14.680Z,7.40
2018-12-09T07:04:49.319Z,7.40
2018-12-09T07:07:24.096Z,7.30
2018-12-09T07:09:58.797Z,7.40
2018-12-09T07:12:33.530Z,7.40
2018-12-09T07:15:08.265Z,7.40
2018-12-09T07:17:43.012Z,7.40
2018-12-09T07:20:17.765Z,7.40
2018-12-09T07:22:52.418Z,7.50
2018-12-09T07:25:27.237Z,7.50
2018-12-09T07:28:01.649Z,7.50
2018-12-09T07:30:36.494Z,7.50
2018-12-09T07:33:11.085Z,7.60
2018-12-09T07:35:45.686Z,7.70
2018-12-09T07:38:20.365Z,7.70
2018-12-09T07:40:55.249Z,7.70
2018-12-09T07:43:30.060Z,7.60
2018-12-09T07:46:04.764Z,7.60
2018-12-09T07:48:39.334Z,7.60
2018-12-09T07:51:14.049Z,7.60
2018-12-09T07:53:48.720Z,7.50
2018-12-09T07:56:23.440Z,7.50
2018-12-09T07:58:58.230Z,7.50
2018-12-09T08:01:32.911Z,7.50
2018-12-09T08:04:07.519Z,7.50
2018-12-09T08:06:42.397Z,7.50
2018-12-09T08:09:19.258Z,7.60
2018-12-09T08:11:54.250Z,7.70
2018-12-09T08:14:28.905Z,7.80
2018-12-09T08:17:03.832Z,7.80
2018-12-09T08:19:38.525Z,7.90
2018-12-09T08:22:13.130Z,7.90
2018-12-09T08:24:47.809Z,8.00
2018-12-09T08:27:22.687Z,8.00
2018-12-09T08:29:58.277Z,8.10
2018-12-09T08:32:33.114Z,8.10
2018-12-09T08:35:07.852Z,8.10
2018-12-09T08:37:42.599Z,8.10
2018-12-09T08:40:17.383Z,8.20
2018-12-09T08:42:52.177Z,8.20
2018-12-09T08:45:27.020Z,8.10
2018-12-09T08:48:01.772Z,8.10
2018-12-09T08:50:36.562Z,8.20
2018-12-09T08:53:11.325Z,8.20
2018-12-09T08:55:46.046Z,8.10
2018-12-09T08:58:20.768Z,8.20
2018-12-09T09:00:55.620Z,8.20
2018-12-09T09:03:30.334Z,8.20
2018-12-09T09:06:05.094Z,8.30
2018-12-09T09:08:39.675Z,8.20
2018-12-09T09:11:14.446Z,8.20
2018-12-09T09:13:49.210Z,8.20
2018-12-09T09:16:23.949Z,8.20
2018-12-09T09:18:58.518Z,8.20
2018-12-09T09:21:33.242Z,8.20
2018-12-09T09:24:07.945Z,8.10
2018-12-09T09:26:42.772Z,8.10
2018-12-09T09:29:17.763Z,8.20
2018-12-09T09:31:52.522Z,8.20
2018-12-09T09:34:27.257Z,8.20
2018-12-09T09:37:02.033Z,8.10
2018-12-09T09:39:36.896Z,8.00
2018-12-09T09:42:11.699Z,7.90
2018-12-09T09:44:46.202Z,7.90
2018-12-09T09:47:21.013Z,7.90
2018-12-09T09:49:55.691Z,8.00
2018-12-09T09:52:30.376Z,8.10
2018-12-09T09:55:05.756Z,8.10
2018-12-09T09:57:40.629Z,8.10
2018-12-09T10:00:15.421Z,8.10
2018-12-09T10:02:50.191Z,8.20
2018-12-09T10:05:25.183Z,8.10
2018-12-09T10:08:00.104Z,8.10
2018-12-09T10:10:34.876Z,8.20
2018-12-09T10:13:09.538Z,8.20
2018-12-09T10:15:46.090Z,8.20
2018-12-09T10:18:20.936Z,8.30
2018-12-09T10:20:55.686Z,8.20
2018-12-09T10:23:30.395Z,8.30
2018-12-09T10:26:05.183Z,8.30
2018-12-09T10:28:39.857Z,8.20
2018-12-09T10:31:14.319Z,8.40
2018-12-09T10:33:49.614Z,8.30
2018-12-09T10:36:24.744Z,8.30
2018-12-09T10:38:59.338Z,8.40
2018-12-09T10:41:34.032Z,8.40
2018-12-09T10:44:08.703Z,8.40
2018-12-09T10:46:43.521Z,8.50
2018-12-09T10:49:18.012Z,8.50
2018-12-09T10:51:52.752Z,8.50
2018-12-09T10:54:27.351Z,8.40
2018-12-09T10:57:01.940Z,8.40
2018-12-09T10:59:30.875Z,8.40
2018-12-09T11:02:05.172Z,8.40
2018-12-09T11:04:34.140Z,8.40
2018-12-09T11:07:05.082Z,8.50
2018-12-09T11:09:34.062Z,8.40
2018-12-09T11:12:03.065Z,8.50
2018-12-09T11:14:31.993Z,8.60
2018-12-09T11:17:01.892Z,8.50
2018-12-09T11:19:30.812Z,8.50
2018-12-09T11:21:59.804Z,8.40
2018-12-09T11:24:28.748Z,8.40
2018-12-09T11:26:57.694Z,8.40
2018-12-09T11:29:26.654Z,8.40
2018-12-09T11:31:55.576Z,8.30
2018-12-09T11:34:24.554Z,8.30
2018-12-09T11:36:53.553Z,8.30
2018-12-09T11:39:22.499Z,8.40
2018-12-09T11:41:51.417Z,8.30
2018-12-09T11:44:23.601Z,8.40
2018-12-09T11:46:52.570Z,8.40
2018-12-09T11:49:21.488Z,8.40
2018-12-09T11:51:50.473Z,8.30
2018-12-09T11:54:19.500Z,8.30
2018-12-09T11:56:48.510Z,8.20
2018-12-09T11:59:17.560Z,8.30
2018-12-09T12:01:46.582Z,8.20
2018-12-09T12:04:15.520Z,8.20
2018-12-09T12:06:44.509Z,8.30
2018-12-09T12:09:13.466Z,8.20
2018-12-09T12:11:42.496Z,8.10
2018-12-09T12:14:11.433Z,8.00
2018-12-09T12:16:40.371Z,8.00
2018-12-09T12:19:09.310Z,7.90
2018-12-09T12:21:38.238Z,7.90
2018-12-09T12:24:07.189Z,7.80
2018-12-09T12:26:36.239Z,7.80
2018-12-09T12:29:05.212Z,7.70
2018-12-09T12:31:34.147Z,7.70
2018-12-09T12:34:03.081Z,7.80
2018-12-09T12:36:32.071Z,7.70
2018-12-09T12:39:00.991Z,7.70
2018-12-09T12:41:31.987Z,7.70
2018-12-09T12:44:01.120Z,7.80
2018-12-09T12:46:30.104Z,7.70
2018-12-09T12:48:59.047Z,7.70
2018-12-09T12:51:28.006Z,7.70
2018-12-09T12:53:57.006Z,7.70
2018-12-09T12:56:25.952Z,7.60
2018-12-09T12:58:54.900Z,7.60
2018-12-09T13:01:23.849Z,7.60
2018-12-09T13:03:52.905Z,7.60
2018-12-09T13:06:22.284Z,7.70
2018-12-09T13:08:51.228Z,7.70
2018-12-09T13:11:20.137Z,7.70
2018-12-09T13:13:49.077Z,7.70
2018-12-09T13:16:18.019Z,7.70
2018-12-09T13:18:47.055Z,7.70
2018-12-09T13:21:16.104Z,7.80
2018-12-09T13:23:45.040Z,7.90
2018-12-09T13:26:14.012Z,7.90
2018-12-09T13:28:42.984Z,7.90
2018-12-09T13:31:11.900Z,7.80
2018-12-09T13:33:40.918Z,7.70
2018-12-09T13:36:09.853Z,7.50
2018-12-09T13:38:38.832Z,7.30
2018-12-09T13:41:07.816Z,7.20
2018-12-09T13:43:36.809Z,7.00
2018-12-09T13:46:05.998Z,6.80
2018-12-09T13:48:35.299Z,6.60
2018-12-09T13:51:04.277Z,6.40
2018-12-09T13:53:33.266Z,6.30
2018-12-09T13:56:02.212Z,6.10
2018-12-09T13:58:31.142Z,6.10
2018-12-09T14:01:00.225Z,6.00
2018-12-09T14:03:31.186Z,6.10
2018-12-09T14:06:00.173Z,6.10
2018-12-09T14:08:29.166Z,6.20
2018-12-09T14:10:58.089Z,6.30
2018-12-09T14:13:27.037Z,6.40
2018-12-09T14:15:55.976Z,6.40
2018-12-09T14:18:24.920Z,6.40
2018-12-09T14:20:54.831Z,6.40
2018-12-09T14:23:23.778Z,6.50
2018-12-09T14:25:52.821Z,6.50
2018-12-09T14:28:21.777Z,6.50
2018-12-09T14:30:50.735Z,6.50
2018-12-09T14:33:19.674Z,6.50
2018-12-09T14:35:48.632Z,6.60
2018-12-09T14:38:17.976Z,6.60
2018-12-09T14:40:46.884Z,6.70
2018-12-09T14:43:15.841Z,6.70
2018-12-09T14:45:48.988Z,6.70
2018-12-09T14:48:15.744Z,6.70
2018-12-09T14:50:44.661Z,6.70
2018-12-09T14:53:13.625Z,6.80
2018-12-09T14:55:42.626Z,6.80
2018-12-09T14:58:11.607Z,6.80
2018-12-09T15:00:40.571Z,6.90
2018-12-09T15:03:09.595Z,6.90
2018-12-09T15:05:38.537Z,6.90
2018-12-09T15:08:08.509Z,6.90
2018-12-09T15:10:37.430Z,7.00
2018-12-09T15:13:06.386Z,7.00
2018-12-09T15:15:35.361Z,7.10
2018-12-09T15:18:04.548Z,7.10
2018-12-09T15:20:33.505Z,7.00
2018-12-09T15:23:02.447Z,7.00
2018-12-09T15:25:31.388Z,7.10
2018-12-09T15:28:00.311Z,7.10
2018-12-09T15:30:29.260Z,7.10
2018-12-09T15:32:58.231Z,7.10
2018-12-09T15:35:27.181Z,7.10
2018-12-09T15:37:56.110Z,7.00
2018-12-09T15:40:25.067Z,7.00
2018-12-09T15:42:53.988Z,6.90
2018-12-09T15:45:22.956Z,6.90
2018-12-09T15:47:51.924Z,6.90
2018-12-09T15:50:20.878Z,6.80
2018-12-09T15:52:49.827Z,6.80
2018-12-09T15:55:18.821Z,6.80
2018-12-09T15:57:47.746Z,6.90
2018-12-09T16:00:16.729Z,6.80
2018-12-09T16:02:45.653Z,6.80
2018-12-09T16:05:14.628Z,6.90
2018-12-09T16:07:44.589Z,6.90
2018-12-09T16:10:13.550Z,7.00
2018-12-09T16:12:42.505Z,6.90
2018-12-09T16:15:11.537Z,6.80
2018-12-09T16:17:40.496Z,6.90
2018-12-09T16:20:09.503Z,6.80
2018-12-09T16:22:38.471Z,6.90
2018-12-09T16:25:07.432Z,6.80
2018-12-09T16:27:36.346Z,6.70
2018-12-09T16:30:06.512Z,6.60
2018-12-09T16:32:35.598Z,6.70
2018-12-09T16:35:06.352Z,6.80
2018-12-09T16:37:35.287Z,6.80
2018-12-09T16:40:05.053Z,6.80
2018-12-09T16:42:34.024Z,6.70
2018-12-09T16:45:02.980Z,6.60
2018-12-09T16:47:31.980Z,6.70
2018-12-09T16:50:00.947Z,6.70
2018-12-09T16:52:29.885Z,6.70
2018-12-09T16:54:58.854Z,6.60
2018-12-09T16:57:27.816Z,6.70
2018-12-09T16:59:56.763Z,6.70
2018-12-09T17:02:25.688Z,6.70
2018-12-09T17:04:54.654Z,6.70
2018-12-09T17:07:23.576Z,6.70
2018-12-09T17:09:52.553Z,6.80
2018-12-09T17:12:21.529Z,6.70
2018-12-09T17:14:50.518Z,6.80
2018-12-09T17:17:19.458Z,6.80
2018-12-09T17:19:48.408Z,6.70
2018-12-09T17:22:17.327Z,6.80
2018-12-09T17:24:46.291Z,6.90
2018-12-09T17:27:15.210Z,6.90
2018-12-09T17:29:44.186Z,6.90
2018-12-09T17:32:13.146Z,6.90
2018-12-09T17:34:42.099Z,7.00
2018-12-09T17:37:11.026Z,7.00
2018-12-09T17:39:40.479Z,6.90
2018-12-09T17:42:09.481Z,7.00
2018-12-09T17:44:38.465Z,7.00
2018-12-09T17:47:07.429Z,7.00
2018-12-09T17:49:36.363Z,7.00
2018-12-09T17:52:05.329Z,7.00
2018-12-09T17:54:34.289Z,6.90
2018-12-09T17:57:03.513Z,6.90
2018-12-09T17:59:32.481Z,6.90
2018-12-09T18:02:02.561Z,6.80
2018-12-09T18:04:31.484Z,6.80
2018-12-09T18:07:00.450Z,6.80
2018-12-09T18:09:29.404Z,6.80
2018-12-09T18:11:59.319Z,6.80
2018-12-09T18:14:28.310Z,6.70
2018-12-09T18:16:57.285Z,6.70
2018-12-09T18:19:26.198Z,6.80
2018-12-09T18:21:55.153Z,6.80
2018-12-09T18:24:24.166Z,6.70
2018-12-09T18:26:53.111Z,6.70
2018-12-09T18:29:22.077Z,6.70
2018-12-09T18:31:51.311Z,6.60
2018-12-09T18:34:20.291Z,6.60
2018-12-09T18:36:49.385Z,6.60
2018-12-09T18:39:18.276Z,6.60
2018-12-09T18:41:47.247Z,6.60
2018-12-09T18:44:16.258Z,6.60
2018-12-09T18:46:45.228Z,6.60
2018-12-09T18:49:14.195Z,6.70
2018-12-09T18:51:43.121Z,6.70
2018-12-09T18:54:12.093Z,6.70
2018-12-09T18:56:41.084Z,6.70
2018-12-09T18:59:10.007Z,6.70
2018-12-09T19:01:39.038Z,6.60
2018-12-09T19:04:10.055Z,6.60
2018-12-09T19:06:39.162Z,6.70
2018-12-09T19:09:08.107Z,6.60
2018-12-09T19:11:37.148Z,6.70
2018-12-09T19:14:06.982Z,6.70
2018-12-09T19:16:36.082Z,6.80
2018-12-09T19:19:05.042Z,6.80
2018-12-09T19:21:34.034Z,6.90
2018-12-09T19:24:02.960Z,6.90
2018-12-09T19:26:32.008Z,7.00
2018-12-09T19:29:00.960Z,7.10
2018-12-09T19:31:30.016Z,7.20
2018-12-09T19:33:59.050Z,7.10
2018-12-09T19:36:29.935Z,7.20
2018-12-09T19:38:58.856Z,7.10
2018-12-09T19:41:27.866Z,7.00
2018-12-09T19:43:56.802Z,6.90
2018-12-09T19:46:25.816Z,6.90
2018-12-09T19:48:54.751Z,6.90
2018-12-09T19:51:23.741Z,6.80
2018-12-09T19:53:52.671Z,6.80
2018-12-09T19:56:23.854Z,6.80
2018-12-09T19:58:52.811Z,6.80
2018-12-09T20:01:21.822Z,6.80
2018-12-09T20:03:51.047Z,6.80
2018-12-09T20:06:20.017Z,6.80
2018-12-09T20:08:49.010Z,6.80
2018-12-09T20:11:18.177Z,6.90
2018-12-09T20:13:48.041Z,7.00
2018-12-09T20:16:17.028Z,6.90
2018-12-09T20:18:45.959Z,6.90
2018-12-09T20:21:15.028Z,6.90
2018-12-09T20:23:43.992Z,6.80
2018-12-09T20:26:12.983Z,6.80
2018-12-09T20:28:41.975Z,6.80
2018-12-09T20:31:10.936Z,6.90
2018-12-09T20:33:39.865Z,6.90
2018-12-09T20:36:08.866Z,6.90
2018-12-09T20:38:37.872Z,6.90
2018-12-09T20:41:06.905Z,6.90
2018-12-09T20:43:35.837Z,6.90
2018-12-09T20:46:04.982Z,6.90
2018-12-09T20:48:33.914Z,6.90
2018-12-09T20:51:02.909Z,6.90
2018-12-09T20:53:31.825Z,6.80
2018-12-09T20:56:00.834Z,6.80
2018-12-09T20:58:29.831Z,6.80
2018-12-09T21:00:58.829Z,6.70
2018-12-09T21:03:27.779Z,6.60
2018-12-09T21:05:56.784Z,6.60
2018-12-09T21:08:25.734Z,6.70
2018-12-09T21:10:54.695Z,6.70
2018-12-09T21:13:23.622Z,6.60
2018-12-09T21:15:52.599Z,6.60
2018-12-09T21:18:21.526Z,6.60
2018-12-09T21:20:50.492Z,6.50
2018-12-09T21:23:19.420Z,6.50
2018-12-09T21:25:48.360Z,6.50
2018-12-09T21:28:17.278Z,6.40
2018-12-09T21:30:46.332Z,6.40
2018-12-09T21:33:15.269Z,6.40
2018-12-09T21:35:45.045Z,6.40
2018-12-09T21:38:14.026Z,6.40
2018-12-09T21:40:42.947Z,6.40
2018-12-09T21:43:11.899Z,6.50
2018-12-09T21:45:40.833Z,6.50
2018-12-09T21:48:09.822Z,6.50
2018-12-09T21:50:38.826Z,6.40
2018-12-09T21:53:07.765Z,6.40
2018-12-09T21:55:36.698Z,6.50
2018-12-09T21:58:05.670Z,6.50
2018-12-09T22:00:34.627Z,6.50
2018-12-09T22:03:03.562Z,6.40
2018-12-09T22:05:32.493Z,6.40
2018-12-09T22:08:01.428Z,6.40
2018-12-09T22:10:30.453Z,6.40
2018-12-09T22:12:59.409Z,6.40
2018-12-09T22:15:28.390Z,6.50
2018-12-09T22:17:57.336Z,6.40
2018-12-09T22:20:26.338Z,6.40
2018-12-09T22:22:55.266Z,6.40
2018-12-09T22:25:24.250Z,6.40
2018-12-09T22:27:53.199Z,6.30
2018-12-09T22:30:22.191Z,6.30
2018-12-09T22:32:51.201Z,6.30
2018-12-09T22:35:20.152Z,6.30
2018-12-09T22:37:49.089Z,6.40
2018-12-09T22:40:18.061Z,6.30
2018-12-09T22:42:46.996Z,6.30
2018-12-09T22:45:16.065Z,6.40
2018-12-09T22:47:45.028Z,6.30
2018-12-09T22:50:13.965Z,6.40
2018-12-09T22:52:42.929Z,6.40
2018-12-09T22:55:11.952Z,6.30
2018-12-09T22:57:40.947Z,6.30
2018-12-09T23:02:58.513Z,6.20
2018-12-09T23:05:27.482Z,6.10
2018-12-09T23:07:56.505Z,6.10
2018-12-09T23:10:25.453Z,6.10
2018-12-09T23:12:54.386Z,6.00
2018-12-09T23:15:23.363Z,6.20
2018-12-09T23:17:52.318Z,6.20
2018-12-09T23:20:21.695Z,6.20
2018-12-09T23:22:50.777Z,6.20
2018-12-09T23:25:19.746Z,6.30
2018-12-09T23:27:48.754Z,6.30
2018-12-09T23:30:17.803Z,6.30
2018-12-09T23:32:46.762Z,6.40
2018-12-09T23:35:15.683Z,6.40
2018-12-09T23:37:44.634Z,6.40
2018-12-09T23:40:13.669Z,6.40
2018-12-09T23:42:42.627Z,6.40
2018-12-09T23:45:11.646Z,6.30
2018-12-09T23:47:40.605Z,6.30
2018-12-09T23:50:09.598Z,6.30
2018-12-09T23:52:38.573Z,6.30
2018-12-09T23:55:07.649Z,6.30
2018-12-09T23:57:36.580Z,6.20
